CheckWX is a tool to help pilots better visualize weather data.  It is not intended as a substitute for an official pre-flight weather briefing.

21:36:25 UTC

MMMX TAF
Licenciado Benito Juarez International Airport
Mexico City, Mexico
TAF MMMX 201640Z 2018/2124 12005KT P6SM SCT030 TX25/2021Z TN10/2112Z FM202000 23012KT P6SM BKN030 FM210100 04005KT P6SM SKC TEMPO 2112/2116 3SM BR BKN015 FM211600 00000KT 4SM HZ SKC FM212000 04010KT P6SM BKN025

Mar-20@
18:00 UTC

Mar-20 @ 18:00 UTC

Mar-20@
20:00 UTC

Mar-20 @ 20:00 UTC

TAF MMMX 201640Z 2018/2124 12005KT P6SM SCT030 TX25/2021Z TN10/2112Z

Expired

Wind
  • 120° at 5 KTS
Cloud Levels
  • Scattered at 3,000' AGL

Mar-20@
20:00 UTC

Mar-20 @ 20:00 UTC

Mar-21@
01:00 UTC

Mar-21 @ 01:00 UTC

FM202000 23012KT P6SM BKN030

From

From Standard forecast or significant change

Wind
  • 230° at 12 KTS
Cloud Levels
  • Broken at 3,000' AGL

Mar-21@
01:00 UTC

Mar-21 @ 01:00 UTC

Mar-21@
16:00 UTC

Mar-21 @ 16:00 UTC

FM210100 04005KT P6SM SKC

From

From Standard forecast or significant change

Wind
  • 040° at 5 KTS
Cloud Levels
  • Clear skies

Mar-21@
12:00 UTC

Mar-21 @ 12:00 UTC

Mar-21@
16:00 UTC

Mar-21 @ 16:00 UTC

TEMPO 2112/2116 3SM BR BKN015

Temporary

Temporary Changes expected for less than half the time period

Conditions
Mist
Cloud Levels
  • Broken at 1,500' AGL

Mar-21@
16:00 UTC

Mar-21 @ 16:00 UTC

Mar-21@
20:00 UTC

Mar-21 @ 20:00 UTC

FM211600 00000KT 4SM HZ SKC

From

From Standard forecast or significant change

Conditions
Haze
Cloud Levels
  • Clear skies

Mar-21@
20:00 UTC

Mar-21 @ 20:00 UTC

Mar-22@
00:00 UTC

Mar-22 @ 00:00 UTC

FM212000 04010KT P6SM BKN025

From

From Standard forecast or significant change

Wind
  • 040° at 10 KTS
Cloud Levels
  • Broken at 2,500' AGL